sensor_id;sensor_type;location;lat;lon;timestamp;P1;durP1;ratioP1;P2;durP2;ratioP2
85642;SDS011;76068;52.404;16.862;2024-03-08T00:00:27;45.83;;;17.70;;
85642;SDS011;76068;52.404;16.862;2024-03-08T00:03:13;47.08;;;19.40;;
85642;SDS011;76068;52.404;16.862;2024-03-08T00:05:39;53.67;;;19.95;;
85642;SDS011;76068;52.404;16.862;2024-03-08T00:08:05;41.20;;;18.50;;
85642;SDS011;76068;52.404;16.862;2024-03-08T00:10:34;50.58;;;18.98;;
85642;SDS011;76068;52.404;16.862;2024-03-08T00:13:00;41.60;;;17.13;;
85642;SDS011;76068;52.404;16.862;2024-03-08T00:15:25;48.85;;;19.88;;
85642;SDS011;76068;52.404;16.862;2024-03-08T00:17:51;45.50;;;17.75;;
85642;SDS011;76068;52.404;16.862;2024-03-08T00:20:17;47.13;;;18.95;;
85642;SDS011;76068;52.404;16.862;2024-03-08T00:22:46;50.88;;;17.20;;
85642;SDS011;76068;52.404;16.862;2024-03-08T00:25:12;37.85;;;15.38;;
85642;SDS011;76068;52.404;16.862;2024-03-08T00:27:38;46.10;;;15.93;;
85642;SDS011;76068;52.404;16.862;2024-03-08T00:30:03;40.63;;;18.38;;
85642;SDS011;76068;52.404;16.862;2024-03-08T00:32:31;43.35;;;17.95;;
85642;SDS011;76068;52.404;16.862;2024-03-08T00:34:57;39.90;;;17.30;;
85642;SDS011;76068;52.404;16.862;2024-03-08T00:37:23;45.88;;;16.58;;
85642;SDS011;76068;52.404;16.862;2024-03-08T00:39:49;39.75;;;17.15;;
85642;SDS011;76068;52.404;16.862;2024-03-08T00:42:15;46.78;;;17.77;;
85642;SDS011;76068;52.404;16.862;2024-03-08T00:44:41;43.35;;;17.95;;
85642;SDS011;76068;52.404;16.862;2024-03-08T00:47:07;41.80;;;16.17;;
85642;SDS011;76068;52.404;16.862;2024-03-08T00:49:33;46.25;;;15.30;;
85642;SDS011;76068;52.404;16.862;2024-03-08T00:51:58;37.45;;;15.18;;
85642;SDS011;76068;52.404;16.862;2024-03-08T00:54:24;43.58;;;16.88;;
85642;SDS011;76068;52.404;16.862;2024-03-08T00:56:50;43.50;;;16.90;;
85642;SDS011;76068;52.404;16.862;2024-03-08T00:59:15;45.00;;;18.42;;
85642;SDS011;76068;52.404;16.862;2024-03-08T01:01:41;48.30;;;17.15;;
85642;SDS011;76068;52.404;16.862;2024-03-08T01:04:07;43.90;;;16.20;;
85642;SDS011;76068;52.404;16.862;2024-03-08T01:06:33;39.30;;;16.38;;
85642;SDS011;76068;52.404;16.862;2024-03-08T01:08:59;45.65;;;16.48;;
85642;SDS011;76068;52.404;16.862;2024-03-08T01:11:25;40.90;;;16.98;;
85642;SDS011;76068;52.404;16.862;2024-03-08T01:13:53;44.05;;;18.17;;
85642;SDS011;76068;52.404;16.862;2024-03-08T01:16:19;39.95;;;16.48;;
85642;SDS011;76068;52.404;16.862;2024-03-08T01:18:46;40.20;;;16.38;;
85642;SDS011;76068;52.404;16.862;2024-03-08T01:21:13;43.97;;;17.38;;
85642;SDS011;76068;52.404;16.862;2024-03-08T01:23:38;45.22;;;17.80;;
85642;SDS011;76068;52.404;16.862;2024-03-08T01:26:04;36.92;;;14.95;;
85642;SDS011;76068;52.404;16.862;2024-03-08T01:28:30;41.95;;;17.42;;
85642;SDS011;76068;52.404;16.862;2024-03-08T01:30:56;42.25;;;17.05;;
85642;SDS011;76068;52.404;16.862;2024-03-08T01:33:22;40.15;;;17.27;;
85642;SDS011;76068;52.404;16.862;2024-03-08T01:35:49;46.63;;;17.30;;
85642;SDS011;76068;52.404;16.862;2024-03-08T01:38:14;41.53;;;16.38;;
85642;SDS011;76068;52.404;16.862;2024-03-08T01:40:41;35.65;;;14.50;;
85642;SDS011;76068;52.404;16.862;2024-03-08T01:43:17;48.95;;;18.23;;
85642;SDS011;76068;52.404;16.862;2024-03-08T01:45:43;41.25;;;16.10;;
85642;SDS011;76068;52.404;16.862;2024-03-08T01:48:09;40.28;;;17.48;;
85642;SDS011;76068;52.404;16.862;2024-03-08T01:50:35;41.60;;;16.65;;
85642;SDS011;76068;52.404;16.862;2024-03-08T01:53:01;39.20;;;16.58;;
85642;SDS011;76068;52.404;16.862;2024-03-08T01:55:29;40.47;;;16.13;;
85642;SDS011;76068;52.404;16.862;2024-03-08T01:57:54;41.08;;;16.00;;
85642;SDS011;76068;52.404;16.862;2024-03-08T02:00:20;39.78;;;16.55;;
85642;SDS011;76068;52.404;16.862;2024-03-08T02:02:46;36.03;;;15.63;;
85642;SDS011;76068;52.404;16.862;2024-03-08T02:05:12;44.45;;;17.00;;
85642;SDS011;76068;52.404;16.862;2024-03-08T02:07:41;41.83;;;18.02;;
85642;SDS011;76068;52.404;16.862;2024-03-08T02:10:09;42.00;;;17.00;;
85642;SDS011;76068;52.404;16.862;2024-03-08T02:15:04;42.55;;;16.17;;
85642;SDS011;76068;52.404;16.862;2024-03-08T02:17:32;42.63;;;16.38;;
85642;SDS011;76068;52.404;16.862;2024-03-08T02:20:00;39.33;;;15.75;;
85642;SDS011;76068;52.404;16.862;2024-03-08T02:22:30;38.35;;;14.68;;
85642;SDS011;76068;52.404;16.862;2024-03-08T02:24:58;42.47;;;17.35;;
85642;SDS011;76068;52.404;16.862;2024-03-08T02:27:27;41.05;;;16.98;;
85642;SDS011;76068;52.404;16.862;2024-03-08T02:29:56;40.70;;;16.65;;
85642;SDS011;76068;52.404;16.862;2024-03-08T02:32:23;40.60;;;14.98;;
85642;SDS011;76068;52.404;16.862;2024-03-08T02:34:49;37.60;;;16.20;;
85642;SDS011;76068;52.404;16.862;2024-03-08T02:37:15;42.75;;;16.50;;
85642;SDS011;76068;52.404;16.862;2024-03-08T02:39:41;40.40;;;17.80;;
85642;SDS011;76068;52.404;16.862;2024-03-08T02:42:07;36.72;;;14.85;;
85642;SDS011;76068;52.404;16.862;2024-03-08T02:44:33;39.70;;;15.32;;
85642;SDS011;76068;52.404;16.862;2024-03-08T02:46:59;39.20;;;16.20;;
85642;SDS011;76068;52.404;16.862;2024-03-08T02:49:25;36.35;;;14.18;;
85642;SDS011;76068;52.404;16.862;2024-03-08T02:51:54;40.28;;;18.02;;
85642;SDS011;76068;52.404;16.862;2024-03-08T02:54:22;46.70;;;18.55;;
85642;SDS011;76068;52.404;16.862;2024-03-08T02:56:49;46.80;;;15.55;;
85642;SDS011;76068;52.404;16.862;2024-03-08T02:59:18;41.05;;;16.42;;
85642;SDS011;76068;52.404;16.862;2024-03-08T03:01:44;39.97;;;17.50;;
85642;SDS011;76068;52.404;16.862;2024-03-08T03:04:09;39.67;;;17.70;;
85642;SDS011;76068;52.404;16.862;2024-03-08T03:06:35;47.25;;;17.55;;
85642;SDS011;76068;52.404;16.862;2024-03-08T03:09:01;49.05;;;18.23;;
85642;SDS011;76068;52.404;16.862;2024-03-08T03:11:27;44.85;;;17.85;;
85642;SDS011;76068;52.404;16.862;2024-03-08T03:13:53;37.33;;;15.10;;
85642;SDS011;76068;52.404;16.862;2024-03-08T03:16:19;47.70;;;16.85;;
85642;SDS011;76068;52.404;16.862;2024-03-08T03:18:45;39.15;;;17.60;;
85642;SDS011;76068;52.404;16.862;2024-03-08T03:21:12;42.58;;;15.82;;
85642;SDS011;76068;52.404;16.862;2024-03-08T03:23:39;43.22;;;16.30;;
85642;SDS011;76068;52.404;16.862;2024-03-08T03:26:05;42.22;;;16.60;;
85642;SDS011;76068;52.404;16.862;2024-03-08T03:28:33;38.50;;;17.58;;
85642;SDS011;76068;52.404;16.862;2024-03-08T03:30:58;41.80;;;16.13;;
85642;SDS011;76068;52.404;16.862;2024-03-08T03:33:24;35.63;;;15.70;;
85642;SDS011;76068;52.404;16.862;2024-03-08T03:35:50;49.42;;;17.75;;
85642;SDS011;76068;52.404;16.862;2024-03-08T03:44:28;33.40;;;14.68;;
85642;SDS011;76068;52.404;16.862;2024-03-08T03:56:12;37.95;;;14.25;;
85642;SDS011;76068;52.404;16.862;2024-03-08T03:58:38;36.45;;;15.05;;
85642;SDS011;76068;52.404;16.862;2024-03-08T04:12:23;39.33;;;15.40;;
85642;SDS011;76068;52.404;16.862;2024-03-08T04:14:48;42.42;;;17.13;;
85642;SDS011;76068;52.404;16.862;2024-03-08T04:17:14;40.90;;;15.85;;
85642;SDS011;76068;52.404;16.862;2024-03-08T04:19:40;43.53;;;16.08;;
85642;SDS011;76068;52.404;16.862;2024-03-08T04:22:06;42.67;;;16.67;;
85642;SDS011;76068;52.404;16.862;2024-03-08T04:24:33;42.03;;;16.35;;
85642;SDS011;76068;52.404;16.862;2024-03-08T04:26:59;37.58;;;16.98;;
85642;SDS011;76068;52.404;16.862;2024-03-08T04:29:24;41.72;;;18.05;;
85642;SDS011;76068;52.404;16.862;2024-03-08T04:31:50;50.65;;;16.80;;
85642;SDS011;76068;52.404;16.862;2024-03-08T04:34:22;42.97;;;16.50;;
85642;SDS011;76068;52.404;16.862;2024-03-08T04:36:48;45.75;;;17.98;;
85642;SDS011;76068;52.404;16.862;2024-03-08T04:39:14;46.08;;;17.80;;
85642;SDS011;76068;52.404;16.862;2024-03-08T04:41:41;44.53;;;17.05;;
85642;SDS011;76068;52.404;16.862;2024-03-08T04:44:09;41.28;;;15.25;;
85642;SDS011;76068;52.404;16.862;2024-03-08T04:46:36;42.97;;;18.23;;
85642;SDS011;76068;52.404;16.862;2024-03-08T04:49:01;42.03;;;18.55;;
85642;SDS011;76068;52.404;16.862;2024-03-08T04:51:27;41.15;;;17.08;;
85642;SDS011;76068;52.404;16.862;2024-03-08T04:53:52;44.08;;;17.52;;
85642;SDS011;76068;52.404;16.862;2024-03-08T04:56:18;49.30;;;18.67;;
85642;SDS011;76068;52.404;16.862;2024-03-08T04:58:44;48.65;;;18.75;;
85642;SDS011;76068;52.404;16.862;2024-03-08T05:01:12;43.97;;;17.80;;
85642;SDS011;76068;52.404;16.862;2024-03-08T05:03:38;48.33;;;19.23;;
85642;SDS011;76068;52.404;16.862;2024-03-08T05:06:04;50.75;;;19.33;;
85642;SDS011;76068;52.404;16.862;2024-03-08T05:08:30;44.80;;;16.90;;
85642;SDS011;76068;52.404;16.862;2024-03-08T05:10:56;43.13;;;17.25;;
85642;SDS011;76068;52.404;16.862;2024-03-08T05:13:21;50.13;;;18.45;;
85642;SDS011;76068;52.404;16.862;2024-03-08T05:15:48;45.30;;;17.30;;
85642;SDS011;76068;52.404;16.862;2024-03-08T05:18:15;42.15;;;18.65;;
85642;SDS011;76068;52.404;16.862;2024-03-08T05:20:41;48.60;;;18.95;;
85642;SDS011;76068;52.404;16.862;2024-03-08T05:23:07;46.92;;;17.85;;
85642;SDS011;76068;52.404;16.862;2024-03-08T05:25:33;52.17;;;19.88;;
85642;SDS011;76068;52.404;16.862;2024-03-08T05:27:59;43.40;;;18.70;;
85642;SDS011;76068;52.404;16.862;2024-03-08T05:30:25;43.28;;;18.75;;
85642;SDS011;76068;52.404;16.862;2024-03-08T05:32:50;45.05;;;18.73;;
85642;SDS011;76068;52.404;16.862;2024-03-08T05:35:16;47.95;;;18.83;;
85642;SDS011;76068;52.404;16.862;2024-03-08T05:37:42;50.28;;;20.98;;
85642;SDS011;76068;52.404;16.862;2024-03-08T05:40:08;46.55;;;19.17;;
85642;SDS011;76068;52.404;16.862;2024-03-08T05:42:35;48.08;;;18.33;;
85642;SDS011;76068;52.404;16.862;2024-03-08T05:45:05;48.70;;;18.20;;
85642;SDS011;76068;52.404;16.862;2024-03-08T05:47:35;53.30;;;18.83;;
85642;SDS011;76068;52.404;16.862;2024-03-08T05:50:01;57.70;;;21.23;;
85642;SDS011;76068;52.404;16.862;2024-03-08T05:52:28;49.90;;;19.05;;
85642;SDS011;76068;52.404;16.862;2024-03-08T05:54:54;51.00;;;19.65;;
85642;SDS011;76068;52.404;16.862;2024-03-08T05:57:20;47.17;;;18.73;;
85642;SDS011;76068;52.404;16.862;2024-03-08T05:59:48;44.78;;;20.60;;
85642;SDS011;76068;52.404;16.862;2024-03-08T06:02:14;44.10;;;19.02;;
85642;SDS011;76068;52.404;16.862;2024-03-08T06:04:47;43.28;;;19.30;;
85642;SDS011;76068;52.404;16.862;2024-03-08T06:07:13;48.78;;;18.67;;
85642;SDS011;76068;52.404;16.862;2024-03-08T06:09:39;51.72;;;19.70;;
85642;SDS011;76068;52.404;16.862;2024-03-08T06:12:04;47.42;;;19.10;;
85642;SDS011;76068;52.404;16.862;2024-03-08T06:14:32;48.88;;;21.30;;
85642;SDS011;76068;52.404;16.862;2024-03-08T06:16:57;51.97;;;21.17;;
85642;SDS011;76068;52.404;16.862;2024-03-08T06:19:23;58.03;;;22.90;;
85642;SDS011;76068;52.404;16.862;2024-03-08T06:21:49;53.65;;;20.80;;
85642;SDS011;76068;52.404;16.862;2024-03-08T06:24:14;48.40;;;20.17;;
85642;SDS011;76068;52.404;16.862;2024-03-08T06:26:40;47.28;;;20.42;;
85642;SDS011;76068;52.404;16.862;2024-03-08T06:29:06;56.08;;;21.73;;
85642;SDS011;76068;52.404;16.862;2024-03-08T06:31:32;52.90;;;21.02;;
85642;SDS011;76068;52.404;16.862;2024-03-08T06:33:58;56.67;;;21.88;;
85642;SDS011;76068;52.404;16.862;2024-03-08T06:36:24;54.88;;;20.67;;
85642;SDS011;76068;52.404;16.862;2024-03-08T06:38:50;48.53;;;22.15;;
85642;SDS011;76068;52.404;16.862;2024-03-08T06:41:16;57.08;;;22.00;;
85642;SDS011;76068;52.404;16.862;2024-03-08T06:43:43;53.00;;;21.42;;
85642;SDS011;76068;52.404;16.862;2024-03-08T06:46:09;55.42;;;23.25;;
85642;SDS011;76068;52.404;16.862;2024-03-08T06:48:38;48.47;;;20.35;;
85642;SDS011;76068;52.404;16.862;2024-03-08T06:51:04;49.97;;;21.20;;
85642;SDS011;76068;52.404;16.862;2024-03-08T06:53:31;47.05;;;20.60;;
85642;SDS011;76068;52.404;16.862;2024-03-08T06:55:57;55.92;;;21.38;;
85642;SDS011;76068;52.404;16.862;2024-03-08T06:58:24;48.10;;;20.38;;
85642;SDS011;76068;52.404;16.862;2024-03-08T07:00:50;51.63;;;22.05;;
85642;SDS011;76068;52.404;16.862;2024-03-08T07:03:18;59.58;;;21.02;;
85642;SDS011;76068;52.404;16.862;2024-03-08T07:05:44;54.00;;;22.17;;
85642;SDS011;76068;52.404;16.862;2024-03-08T07:08:10;47.33;;;21.13;;
85642;SDS011;76068;52.404;16.862;2024-03-08T07:10:39;51.92;;;20.85;;
85642;SDS011;76068;52.404;16.862;2024-03-08T07:13:07;49.47;;;20.40;;
85642;SDS011;76068;52.404;16.862;2024-03-08T07:15:33;58.28;;;21.63;;
85642;SDS011;76068;52.404;16.862;2024-03-08T07:17:59;52.15;;;22.67;;
85642;SDS011;76068;52.404;16.862;2024-03-08T07:20:25;45.80;;;20.88;;
85642;SDS011;76068;52.404;16.862;2024-03-08T07:22:51;43.58;;;20.42;;
85642;SDS011;76068;52.404;16.862;2024-03-08T07:25:16;47.47;;;21.58;;
85642;SDS011;76068;52.404;16.862;2024-03-08T07:27:55;52.55;;;22.42;;
85642;SDS011;76068;52.404;16.862;2024-03-08T07:30:21;51.55;;;22.23;;
85642;SDS011;76068;52.404;16.862;2024-03-08T07:33:10;48.97;;;21.42;;
85642;SDS011;76068;52.404;16.862;2024-03-08T07:35:38;49.70;;;20.85;;
85642;SDS011;76068;52.404;16.862;2024-03-08T07:38:06;56.25;;;21.20;;
85642;SDS011;76068;52.404;16.862;2024-03-08T07:40:36;49.65;;;22.17;;
85642;SDS011;76068;52.404;16.862;2024-03-08T07:43:10;51.92;;;20.02;;
85642;SDS011;76068;52.404;16.862;2024-03-08T07:45:36;44.97;;;19.38;;
85642;SDS011;76068;52.404;16.862;2024-03-08T07:48:03;51.78;;;19.40;;
85642;SDS011;76068;52.404;16.862;2024-03-08T07:50:36;45.25;;;19.67;;
85642;SDS011;76068;52.404;16.862;2024-03-08T07:53:03;49.88;;;18.40;;
85642;SDS011;76068;52.404;16.862;2024-03-08T07:55:29;47.22;;;20.00;;
85642;SDS011;76068;52.404;16.862;2024-03-08T07:57:57;44.50;;;19.05;;
85642;SDS011;76068;52.404;16.862;2024-03-08T08:00:22;51.28;;;18.73;;
85642;SDS011;76068;52.404;16.862;2024-03-08T08:02:49;39.75;;;18.23;;
85642;SDS011;76068;52.404;16.862;2024-03-08T08:05:15;41.65;;;19.00;;
85642;SDS011;76068;52.404;16.862;2024-03-08T08:07:44;43.63;;;17.90;;
85642;SDS011;76068;52.404;16.862;2024-03-08T08:10:12;39.90;;;17.23;;
